createdAt,value
2018-12-02T00:01:42.734Z,11.40
2018-12-02T00:04:16.798Z,11.40
2018-12-02T00:06:50.871Z,11.50
2018-12-02T00:09:24.917Z,11.40
2018-12-02T00:11:58.985Z,11.40
2018-12-02T00:14:33.031Z,11.40
2018-12-02T00:17:07.123Z,11.40
2018-12-02T00:19:41.158Z,11.50
2018-12-02T00:22:15.227Z,11.50
2018-12-02T00:24:49.319Z,11.50
2018-12-02T00:27:23.381Z,11.50
2018-12-02T00:29:57.441Z,11.60
2018-12-02T00:32:31.515Z,11.50
2018-12-02T00:35:06.389Z,11.40
2018-12-02T00:37:40.915Z,11.40
2018-12-02T00:40:15.784Z,11.40
2018-12-02T00:42:51.293Z,11.40
2018-12-02T00:45:28.403Z,11.30
2018-12-02T00:48:03.982Z,11.20
2018-12-02T00:50:38.293Z,11.20
2018-12-02T00:53:12.416Z,11.10
2018-12-02T00:55:46.481Z,10.90
2018-12-02T00:58:20.542Z,10.90
2018-12-02T01:00:54.608Z,10.90
2018-12-02T01:03:28.729Z,10.90
2018-12-02T01:06:02.774Z,10.80
2018-12-02T01:08:36.861Z,10.80
2018-12-02T01:11:11.542Z,10.70
2018-12-02T01:13:45.610Z,10.80
2018-12-02T01:16:19.706Z,10.80
2018-12-02T01:18:53.783Z,10.70
2018-12-02T01:21:27.821Z,10.70
2018-12-02T01:24:01.905Z,10.70
2018-12-02T01:26:35.978Z,10.80
2018-12-02T01:29:10.047Z,10.80
2018-12-02T01:31:45.220Z,10.70
2018-12-02T01:34:19.276Z,10.80
2018-12-02T01:36:53.371Z,10.80
2018-12-02T01:39:27.426Z,10.90
2018-12-02T01:42:01.480Z,10.90
2018-12-02T01:44:35.574Z,10.90
2018-12-02T01:47:09.626Z,10.90
2018-12-02T01:49:43.707Z,10.90
2018-12-02T01:52:17.774Z,10.90
2018-12-02T01:54:51.811Z,10.90
2018-12-02T01:57:25.891Z,10.90
2018-12-02T01:59:59.942Z,11.00
2018-12-02T02:02:35.085Z,11.00
2018-12-02T02:05:09.186Z,11.00
2018-12-02T02:07:43.254Z,11.00
2018-12-02T02:10:23.322Z,11.10
2018-12-02T02:12:57.428Z,11.10
2018-12-02T02:15:31.498Z,11.20
2018-12-02T02:18:05.913Z,11.20
2018-12-02T02:20:39.979Z,11.20
2018-12-02T02:23:14.037Z,11.30
2018-12-02T02:25:48.091Z,11.30
2018-12-02T02:28:22.187Z,11.30
2018-12-02T02:30:56.230Z,11.30
2018-12-02T02:33:30.363Z,11.30
2018-12-02T02:36:04.538Z,11.30
2018-12-02T02:38:38.599Z,11.40
2018-12-02T02:41:12.636Z,11.40
2018-12-02T02:43:46.691Z,11.50
2018-12-02T02:46:20.722Z,11.50
2018-12-02T02:48:54.877Z,11.60
2018-12-02T02:51:28.901Z,11.60
2018-12-02T02:54:02.954Z,11.60
2018-12-02T02:56:36.977Z,11.60
2018-12-02T02:59:11.023Z,11.70
2018-12-02T03:01:45.050Z,11.70
2018-12-02T03:04:19.111Z,11.70
2018-12-02T03:06:53.126Z,11.80
2018-12-02T03:09:27.191Z,11.80
2018-12-02T03:12:01.207Z,11.80
2018-12-02T03:14:35.243Z,11.80
2018-12-02T03:17:09.278Z,11.80
2018-12-02T03:19:43.329Z,11.90
2018-12-02T03:22:17.361Z,11.90
2018-12-02T03:24:51.409Z,11.90
2018-12-02T03:27:25.494Z,12.00
2018-12-02T03:29:59.558Z,12.00
2018-12-02T03:32:33.605Z,12.00
2018-12-02T03:35:09.000Z,12.00
2018-12-02T03:37:43.025Z,12.10
2018-12-02T03:40:18.180Z,12.10
2018-12-02T03:42:52.869Z,12.20
2018-12-02T03:45:28.455Z,12.20
2018-12-02T03:48:02.506Z,12.20
2018-12-02T03:50:36.537Z,12.10
2018-12-02T03:53:10.606Z,12.30
2018-12-02T03:55:44.627Z,12.20
2018-12-02T03:58:18.707Z,12.10
2018-12-02T04:00:53.790Z,12.20
2018-12-02T04:03:27.845Z,12.10
2018-12-02T04:06:01.883Z,12.10
2018-12-02T04:08:35.970Z,12.00
2018-12-02T04:11:10.021Z,11.90
2018-12-02T04:13:44.065Z,11.80
2018-12-02T04:16:18.090Z,11.70
2018-12-02T04:18:52.150Z,11.70
2018-12-02T04:21:26.173Z,11.60
2018-12-02T04:24:00.218Z,11.60
2018-12-02T04:26:34.249Z,11.50
2018-12-02T04:29:08.289Z,11.40
2018-12-02T04:31:42.327Z,11.50
2018-12-02T04:34:16.378Z,11.30
2018-12-02T04:36:50.442Z,11.30
2018-12-02T04:39:24.488Z,11.30
2018-12-02T04:41:58.523Z,11.10
2018-12-02T04:44:32.556Z,11.20
2018-12-02T04:47:06.581Z,11.10
2018-12-02T04:49:40.749Z,11.20
2018-12-02T04:52:14.752Z,11.10
2018-12-02T04:54:48.808Z,11.00
2018-12-02T04:57:22.822Z,10.90
2018-12-02T04:59:56.877Z,10.90
2018-12-02T05:02:30.916Z,11.00
2018-12-02T05:05:07.330Z,10.90
2018-12-02T05:07:41.837Z,10.90
2018-12-02T05:10:16.681Z,10.80
2018-12-02T05:12:51.203Z,10.80
2018-12-02T05:15:25.245Z,10.90
2018-12-02T05:17:59.264Z,10.90
2018-12-02T05:20:33.313Z,10.80
2018-12-02T05:23:07.363Z,10.80
2018-12-02T05:25:41.404Z,10.90
2018-12-02T05:28:15.440Z,10.90
2018-12-02T05:30:49.506Z,10.90
2018-12-02T05:33:23.539Z,10.90
2018-12-02T05:35:57.578Z,11.00
2018-12-02T05:38:31.606Z,11.00
2018-12-02T05:41:05.990Z,11.00
2018-12-02T05:43:40.130Z,10.90
2018-12-02T05:46:14.157Z,10.90
2018-12-02T05:48:48.192Z,10.90
2018-12-02T05:51:22.221Z,11.00
2018-12-02T05:53:57.322Z,11.00
2018-12-02T05:56:31.342Z,11.00
2018-12-02T05:59:05.913Z,11.10
2018-12-02T06:01:39.956Z,11.00
2018-12-02T06:04:14.029Z,11.10
2018-12-02T06:06:48.010Z,11.10
2018-12-02T06:09:22.129Z,11.10
2018-12-02T06:11:56.157Z,11.20
2018-12-02T06:14:30.199Z,11.10
2018-12-02T06:17:04.278Z,11.20
2018-12-02T06:19:38.309Z,11.20
2018-12-02T06:22:12.394Z,11.20
2018-12-02T06:24:46.446Z,11.30
2018-12-02T06:27:20.467Z,11.20
2018-12-02T06:29:54.537Z,11.30
2018-12-02T06:32:28.589Z,11.30
2018-12-02T06:35:02.662Z,11.20
2018-12-02T06:37:36.697Z,11.20
2018-12-02T06:40:18.700Z,11.20
2018-12-02T06:42:52.775Z,11.20
2018-12-02T06:45:27.930Z,11.30
2018-12-02T06:51:17.272Z,11.30
2018-12-02T06:53:51.327Z,11.30
2018-12-02T06:56:27.360Z,11.30
2018-12-02T06:59:18.513Z,11.30
2018-12-02T07:02:02.438Z,11.30
2018-12-02T07:04:38.293Z,11.30
2018-12-02T07:07:12.312Z,11.30
2018-12-02T07:09:47.581Z,11.30
2018-12-02T07:12:23.867Z,11.40
2018-12-02T07:14:58.572Z,11.30
2018-12-02T07:17:32.611Z,11.30
2018-12-02T07:20:09.041Z,11.30
2018-12-02T07:22:43.411Z,11.40
2018-12-02T07:25:17.457Z,11.40
2018-12-02T07:27:51.482Z,11.50
2018-12-02T07:30:25.928Z,11.50
2018-12-02T07:32:59.955Z,11.50
2018-12-02T07:35:50.269Z,11.40
2018-12-02T07:38:35.873Z,11.50
2018-12-02T07:41:25.958Z,11.60
2018-12-02T07:43:59.982Z,11.60
2018-12-02T07:46:34.498Z,11.50
2018-12-02T07:49:08.551Z,11.50
2018-12-02T07:51:42.582Z,11.50
2018-12-02T07:54:16.620Z,11.60
2018-12-02T07:56:50.683Z,11.60
2018-12-02T07:59:24.709Z,11.60
2018-12-02T08:01:58.757Z,11.70
2018-12-02T08:04:35.953Z,11.70
2018-12-02T08:07:11.117Z,11.70
2018-12-02T08:09:45.938Z,11.80
2018-12-02T08:12:20.111Z,11.80
2018-12-02T08:14:54.147Z,11.80
2018-12-02T08:17:32.119Z,11.90
2018-12-02T08:20:15.338Z,11.90
2018-12-02T08:22:51.448Z,11.90
2018-12-02T08:25:29.718Z,11.90
2018-12-02T08:28:03.821Z,12.00
2018-12-02T08:30:38.422Z,11.90
2018-12-02T08:33:12.587Z,12.00
2018-12-02T08:35:48.643Z,11.90
2018-12-02T08:38:23.765Z,11.90
2018-12-02T08:40:57.917Z,11.90
2018-12-02T08:43:31.942Z,12.00
2018-12-02T08:46:06.024Z,11.90
2018-12-02T08:48:40.326Z,11.80
2018-12-02T08:51:14.369Z,11.90
2018-12-02T08:53:48.386Z,11.90
2018-12-02T08:56:23.672Z,11.90
2018-12-02T08:58:57.876Z,12.00
2018-12-02T09:01:32.094Z,12.00
2018-12-02T09:04:06.546Z,12.00
2018-12-02T09:12:52.610Z,12.00
2018-12-02T09:15:26.678Z,12.00
2018-12-02T09:18:00.719Z,12.00
2018-12-02T09:20:35.632Z,12.00
2018-12-02T09:23:13.023Z,12.10
2018-12-02T09:25:45.767Z,12.10
2018-12-02T09:28:19.859Z,12.10
2018-12-02T09:30:54.025Z,12.10
2018-12-02T09:33:28.069Z,12.30
2018-12-02T09:36:02.294Z,12.30
2018-12-02T09:38:36.346Z,12.20
2018-12-02T09:41:10.382Z,12.30
2018-12-02T09:43:44.453Z,12.30
2018-12-02T09:46:24.346Z,12.40
2018-12-02T09:48:58.386Z,12.50
2018-12-02T09:51:36.755Z,12.50
2018-12-02T09:54:10.874Z,12.50
2018-12-02T09:56:46.272Z,12.60
2018-12-02T09:59:22.138Z,12.70
2018-12-02T10:01:57.485Z,12.70
2018-12-02T10:04:31.567Z,12.70
2018-12-02T10:07:05.657Z,12.70
2018-12-02T10:09:39.770Z,12.70
2018-12-02T10:12:13.870Z,12.70
2018-12-02T10:14:47.900Z,12.80
2018-12-02T10:17:23.054Z,12.70
2018-12-02T10:19:58.095Z,12.80
2018-12-02T10:22:35.990Z,12.80
2018-12-02T10:25:15.378Z,12.80
2018-12-02T10:27:49.830Z,12.80
2018-12-02T10:30:24.856Z,12.80
2018-12-02T10:32:59.544Z,12.90
2018-12-02T10:35:34.715Z,12.80
2018-12-02T10:38:09.185Z,12.80
2018-12-02T10:40:43.409Z,12.90
2018-12-02T10:43:17.462Z,12.90
2018-12-02T10:45:51.594Z,12.90
2018-12-02T10:48:25.693Z,12.90
2018-12-02T10:50:59.722Z,13.00
2018-12-02T10:53:35.386Z,12.90
2018-12-02T10:56:11.367Z,13.00
2018-12-02T10:58:45.426Z,13.00
2018-12-02T11:01:19.745Z,13.00
2018-12-02T11:03:53.799Z,13.00
2018-12-02T11:06:27.915Z,13.10
2018-12-02T11:09:06.478Z,13.10
2018-12-02T11:11:40.511Z,13.20
2018-12-02T11:14:14.618Z,13.20
2018-12-02T11:16:48.747Z,13.30
2018-12-02T11:19:22.796Z,13.20
2018-12-02T11:21:56.854Z,13.30
2018-12-02T11:24:30.905Z,13.30
2018-12-02T11:27:05.069Z,13.40
2018-12-02T11:29:39.119Z,13.20
2018-12-02T11:32:13.182Z,13.30
2018-12-02T11:34:47.236Z,13.20
2018-12-02T11:37:21.258Z,13.20
2018-12-02T11:39:55.303Z,13.10
2018-12-02T11:42:29.343Z,13.30
2018-12-02T11:45:05.946Z,13.20
2018-12-02T11:47:40.586Z,13.30
2018-12-02T11:50:16.510Z,13.30
2018-12-02T11:52:50.583Z,13.30
2018-12-02T11:55:24.762Z,13.30
2018-12-02T11:57:58.829Z,13.40
2018-12-02T12:00:34.277Z,13.30
2018-12-02T12:03:08.382Z,13.30
2018-12-02T12:05:42.495Z,13.30
2018-12-02T12:08:16.645Z,13.30
2018-12-02T12:10:50.671Z,13.30
2018-12-02T12:13:24.727Z,13.30
2018-12-02T12:15:58.773Z,13.30
2018-12-02T12:18:32.870Z,13.40
2018-12-02T12:21:07.314Z,13.40
2018-12-02T12:23:45.319Z,13.40
2018-12-02T12:26:19.392Z,13.30
2018-12-02T12:28:53.447Z,13.40
2018-12-02T12:31:27.513Z,13.40
2018-12-02T12:34:01.565Z,13.40
2018-12-02T12:36:35.628Z,13.40
2018-12-02T12:39:09.944Z,13.50
2018-12-02T12:41:43.983Z,13.40
2018-12-02T12:44:18.106Z,13.40
2018-12-02T12:46:52.135Z,13.40
2018-12-02T12:49:26.196Z,13.40
2018-12-02T12:52:00.224Z,13.50
2018-12-02T12:54:38.533Z,13.40
2018-12-02T12:57:12.657Z,13.40
2018-12-02T12:59:46.718Z,13.40
2018-12-02T13:02:20.767Z,13.40
2018-12-02T13:04:54.856Z,13.40
2018-12-02T13:07:29.014Z,13.50
2018-12-02T13:10:05.222Z,13.50
2018-12-02T13:12:39.350Z,13.40
2018-12-02T13:15:23.560Z,13.40
2018-12-02T13:17:59.714Z,13.50
2018-12-02T13:20:38.663Z,13.50
2018-12-02T13:23:13.784Z,13.50
2018-12-02T13:25:48.010Z,13.50
2018-12-02T13:28:22.103Z,13.50
2018-12-02T13:30:56.230Z,13.50
2018-12-02T13:33:30.290Z,13.50
2018-12-02T13:36:04.623Z,13.50
2018-12-02T13:38:38.736Z,13.60
2018-12-02T13:41:12.764Z,13.60
2018-12-02T13:43:46.846Z,13.60
2018-12-02T13:46:20.905Z,13.60
2018-12-02T13:48:54.966Z,13.60
2018-12-02T13:51:29.036Z,13.50
2018-12-02T13:54:08.582Z,13.50
2018-12-02T13:56:42.605Z,13.50
2018-12-02T13:59:16.669Z,13.60
2018-12-02T14:01:50.702Z,13.60
2018-12-02T14:04:24.818Z,13.70
2018-12-02T14:06:58.940Z,13.70
2018-12-02T14:09:33.081Z,13.70
2018-12-02T14:12:07.183Z,13.80
2018-12-02T14:14:42.842Z,13.80
2018-12-02T14:17:19.570Z,13.80
2018-12-02T14:19:53.702Z,13.70
2018-12-02T14:22:27.815Z,13.70
2018-12-02T14:25:02.900Z,13.70
2018-12-02T14:27:36.174Z,13.70
2018-12-02T14:30:13.375Z,13.80
2018-12-02T14:32:47.550Z,13.80
2018-12-02T14:35:22.778Z,13.70
2018-12-02T14:37:56.997Z,13.70
2018-12-02T14:40:33.118Z,13.70
2018-12-02T14:43:07.538Z,13.70
2018-12-02T14:45:42.601Z,13.60
2018-12-02T14:48:16.697Z,13.70
2018-12-02T14:50:50.733Z,13.60
2018-12-02T14:53:24.897Z,13.70
2018-12-02T14:55:58.926Z,13.70
2018-12-02T14:58:33.033Z,13.70
2018-12-02T15:01:07.147Z,13.60
2018-12-02T15:03:41.195Z,13.70
2018-12-02T15:06:15.306Z,13.70
2018-12-02T15:08:49.358Z,13.70
2018-12-02T15:11:23.409Z,13.70
2018-12-02T15:13:57.495Z,13.70
2018-12-02T15:16:31.555Z,13.80
2018-12-02T15:19:07.722Z,13.80
2018-12-02T15:21:41.819Z,13.90
2018-12-02T15:24:15.863Z,13.90
2018-12-02T15:26:49.998Z,13.90
2018-12-02T15:29:24.037Z,13.90
2018-12-02T15:31:58.193Z,13.90
2018-12-02T15:34:32.389Z,14.00
2018-12-02T15:37:06.508Z,13.90
2018-12-02T15:39:40.559Z,14.00
2018-12-02T15:42:14.624Z,14.00
2018-12-02T15:44:48.666Z,13.90
2018-12-02T15:47:22.815Z,14.00
2018-12-02T15:49:56.871Z,14.10
2018-12-02T15:52:30.971Z,14.10
2018-12-02T15:55:06.222Z,14.10
2018-12-02T15:57:40.329Z,14.10
2018-12-02T16:00:16.931Z,14.20
2018-12-02T16:02:50.998Z,14.20
2018-12-02T16:05:25.174Z,14.20
2018-12-02T16:07:59.378Z,14.20
2018-12-02T16:10:33.539Z,14.20
2018-12-02T16:13:09.258Z,14.10
2018-12-02T16:15:44.389Z,14.10
2018-12-02T16:18:18.448Z,14.20
2018-12-02T16:20:54.062Z,14.20
2018-12-02T16:23:28.183Z,14.20
2018-12-02T16:26:02.283Z,14.30
2018-12-02T16:28:36.313Z,14.30
2018-12-02T16:31:10.580Z,14.30
2018-12-02T16:33:45.816Z,14.30
2018-12-02T16:36:23.811Z,14.30
2018-12-02T16:39:04.789Z,14.30
2018-12-02T16:41:38.927Z,14.20
2018-12-02T16:44:17.077Z,14.20
2018-12-02T16:46:51.223Z,14.20
2018-12-02T16:49:25.434Z,14.30
2018-12-02T16:51:59.550Z,14.30
2018-12-02T16:54:34.651Z,14.30
2018-12-02T16:57:10.458Z,14.30
2018-12-02T16:59:44.502Z,14.30
2018-12-02T17:02:18.561Z,14.30
2018-12-02T17:04:52.581Z,14.30
2018-12-02T17:07:28.003Z,14.30
2018-12-02T17:10:02.158Z,14.30
2018-12-02T17:12:37.327Z,14.30
2018-12-02T17:15:15.075Z,14.20
2018-12-02T17:17:49.117Z,14.20
2018-12-02T17:20:23.158Z,14.20
2018-12-02T17:22:58.233Z,14.20
2018-12-02T17:25:32.399Z,14.20
2018-12-02T17:28:06.593Z,14.10
2018-12-02T17:30:46.006Z,14.10
2018-12-02T17:33:20.052Z,14.10
2018-12-02T17:35:54.110Z,14.10
2018-12-02T17:38:28.459Z,14.10
2018-12-02T17:41:02.850Z,14.20
2018-12-02T17:43:38.095Z,14.10
2018-12-02T17:46:12.138Z,14.10
2018-12-02T17:48:46.192Z,14.10
2018-12-02T17:51:20.314Z,14.10
2018-12-02T17:53:54.439Z,14.10
2018-12-02T17:56:28.540Z,14.10
2018-12-02T17:59:02.706Z,14.10
2018-12-02T18:01:37.076Z,14.10
2018-12-02T18:04:11.161Z,14.10
2018-12-02T18:06:45.322Z,14.20
2018-12-02T18:09:19.449Z,14.20
2018-12-02T18:11:53.515Z,14.20
2018-12-02T18:14:27.797Z,14.30
2018-12-02T18:17:02.539Z,14.20
2018-12-02T18:19:36.518Z,14.30
2018-12-02T18:22:10.716Z,14.30
2018-12-02T18:24:44.760Z,14.30
2018-12-02T18:27:20.894Z,14.30
2018-12-02T18:29:55.049Z,14.30
2018-12-02T18:32:29.127Z,14.40
2018-12-02T18:35:09.686Z,14.40
2018-12-02T18:37:43.841Z,14.40
2018-12-02T18:40:17.993Z,14.40
2018-12-02T18:42:52.412Z,14.50
2018-12-02T18:45:26.582Z,14.50
2018-12-02T18:48:00.706Z,14.50
2018-12-02T18:50:34.813Z,14.60
2018-12-02T18:53:08.859Z,14.60
2018-12-02T18:55:43.070Z,14.70
2018-12-02T18:58:17.117Z,14.60
2018-12-02T19:00:52.256Z,14.60
2018-12-02T19:03:28.346Z,14.60
2018-12-02T19:06:04.519Z,14.60
2018-12-02T19:08:39.026Z,14.60
2018-12-02T19:11:13.157Z,14.60
2018-12-02T19:13:47.217Z,14.70
2018-12-02T19:16:21.258Z,14.60
2018-12-02T19:18:56.386Z,14.60
2018-12-02T19:21:31.197Z,14.70
2018-12-02T19:24:06.486Z,14.70
2018-12-02T19:26:40.564Z,14.70
2018-12-02T19:29:14.634Z,14.80
2018-12-02T19:31:48.679Z,14.70
2018-12-02T19:34:22.767Z,14.70
2018-12-02T19:36:59.978Z,14.70
2018-12-02T19:39:34.152Z,14.70
2018-12-02T19:42:08.208Z,14.70
2018-12-02T19:44:43.387Z,14.70
2018-12-02T19:47:17.466Z,14.70
2018-12-02T19:49:51.579Z,14.70
2018-12-02T19:52:25.602Z,14.70
2018-12-02T19:55:00.575Z,14.70
2018-12-02T19:57:34.758Z,14.60
2018-12-02T20:00:19.332Z,14.60
2018-12-02T20:02:55.548Z,14.60
2018-12-02T20:05:29.810Z,14.60
2018-12-02T20:08:04.049Z,14.50
2018-12-02T20:10:38.429Z,14.50
2018-12-02T20:13:13.634Z,14.60
2018-12-02T20:15:54.027Z,14.60
2018-12-02T20:18:28.258Z,14.60
2018-12-02T20:21:02.444Z,14.60
2018-12-02T20:24:43.705Z,14.60
2018-12-02T20:27:17.749Z,14.60
2018-12-02T20:29:51.886Z,14.60
2018-12-02T20:32:25.966Z,14.60
2018-12-02T20:35:01.132Z,14.60
2018-12-02T20:37:35.221Z,14.70
2018-12-02T20:40:12.115Z,14.70
2018-12-02T20:42:46.862Z,14.70
2018-12-02T20:45:20.998Z,14.70
2018-12-02T20:47:55.032Z,14.70
2018-12-02T20:50:29.179Z,14.70
2018-12-02T20:53:03.843Z,14.70
2018-12-02T20:55:37.887Z,14.80
2018-12-02T20:58:11.946Z,14.80
2018-12-02T21:00:47.065Z,14.80
2018-12-02T21:03:23.142Z,14.80
2018-12-02T21:06:03.758Z,14.80
2018-12-02T21:08:37.821Z,14.90
2018-12-02T21:11:11.913Z,14.90
2018-12-02T21:13:46.001Z,14.90
2018-12-02T21:16:20.050Z,14.80
2018-12-02T21:18:54.067Z,14.80
2018-12-02T21:21:28.167Z,14.80
2018-12-02T21:24:02.242Z,14.80
2018-12-02T21:26:36.423Z,14.70
2018-12-02T21:29:10.474Z,14.80
2018-12-02T21:31:44.601Z,14.80
2018-12-02T21:34:18.635Z,14.80
2018-12-02T21:36:53.794Z,14.80
2018-12-02T21:39:27.866Z,14.80
2018-12-02T21:42:01.946Z,14.80
2018-12-02T21:44:35.990Z,14.80
2018-12-02T21:47:10.166Z,14.80
2018-12-02T21:49:44.178Z,14.70
2018-12-02T21:52:18.222Z,14.70
2018-12-02T21:54:52.261Z,14.60
2018-12-02T21:57:26.355Z,14.60
2018-12-02T22:00:00.386Z,14.50
2018-12-02T22:02:34.575Z,14.50
2018-12-02T22:05:08.634Z,14.50
2018-12-02T22:07:42.785Z,14.50
2018-12-02T22:10:19.266Z,14.50
2018-12-02T22:12:53.535Z,14.50
2018-12-02T22:15:27.613Z,14.50
2018-12-02T22:18:01.682Z,14.50
2018-12-02T22:20:35.746Z,14.50
2018-12-02T22:23:09.839Z,14.50
2018-12-02T22:28:49.085Z,14.60
2018-12-02T22:31:23.149Z,14.50
2018-12-02T22:33:57.202Z,14.60
2018-12-02T22:36:31.302Z,14.50
2018-12-02T22:39:07.681Z,14.50
2018-12-02T22:41:41.729Z,14.50
2018-12-02T22:44:15.754Z,14.50
2018-12-02T22:46:50.920Z,14.50
2018-12-02T22:49:24.953Z,14.50
2018-12-02T22:51:59.046Z,14.50
2018-12-02T22:54:33.202Z,14.50
2018-12-02T22:57:07.286Z,14.50
2018-12-02T22:59:41.361Z,14.50
2018-12-02T23:02:17.087Z,14.50
2018-12-02T23:04:51.136Z,14.50
2018-12-02T23:07:25.315Z,14.50
2018-12-02T23:09:59.446Z,14.50
2018-12-02T23:12:33.509Z,14.40
2018-12-02T23:15:07.939Z,14.50
2018-12-02T23:17:42.044Z,14.50
2018-12-02T23:20:16.099Z,14.50
2018-12-02T23:22:50.239Z,14.50
2018-12-02T23:25:24.346Z,14.40
2018-12-02T23:27:59.460Z,14.40
2018-12-02T23:30:33.556Z,14.30
2018-12-02T23:33:07.745Z,14.30
2018-12-02T23:35:41.781Z,14.30
2018-12-02T23:38:15.891Z,14.30
2018-12-02T23:40:49.970Z,14.30
2018-12-02T23:43:24.174Z,14.30
2018-12-02T23:45:58.243Z,14.20
2018-12-02T23:48:32.350Z,14.30
2018-12-02T23:51:06.410Z,14.20
2018-12-02T23:53:40.570Z,14.20
2018-12-02T23:56:14.741Z,14.20
2018-12-02T23:58:48.802Z,14.30
